createdAt,value
2022-08-26T00:00:59.123Z,24.25
2022-08-26T00:03:25.679Z,24.19
2022-08-26T00:05:52.195Z,24.24
2022-08-26T00:08:19.971Z,24.33
2022-08-26T00:10:46.591Z,24.42
2022-08-26T00:13:13.454Z,24.26
2022-08-26T00:15:40.749Z,24.19
2022-08-26T00:18:16.771Z,24.20
2022-08-26T00:20:49.020Z,24.39
2022-08-26T00:23:15.670Z,24.14
2022-08-26T00:25:44.926Z,23.86
2022-08-26T00:28:11.893Z,23.75
2022-08-26T00:30:38.883Z,23.73
2022-08-26T00:33:05.658Z,23.64
2022-08-26T00:35:32.686Z,23.64
2022-08-26T00:38:00.828Z,23.63
2022-08-26T00:40:34.271Z,23.69
2022-08-26T00:43:02.119Z,23.80
2022-08-26T00:45:51.501Z,23.70
2022-08-26T00:48:20.394Z,23.66
2022-08-26T00:50:54.989Z,23.77
2022-08-26T00:53:25.995Z,23.90
2022-08-26T00:56:04.426Z,23.85
2022-08-26T00:58:32.725Z,23.89
2022-08-26T01:01:00.079Z,23.93
2022-08-26T01:03:28.022Z,23.67
2022-08-26T01:05:57.369Z,23.64
2022-08-26T01:08:24.720Z,23.59
2022-08-26T01:10:52.148Z,23.58
2022-08-26T01:13:23.927Z,23.62
2022-08-26T01:15:56.392Z,23.49
2022-08-26T01:18:23.428Z,23.62
2022-08-26T01:21:16.654Z,23.79
2022-08-26T01:23:48.358Z,23.82
2022-08-26T01:26:36.136Z,23.74
2022-08-26T01:29:04.762Z,23.72
2022-08-26T01:31:39.088Z,23.58
2022-08-26T01:34:10.836Z,23.44
2022-08-26T01:36:39.039Z,23.37
2022-08-26T01:39:07.243Z,23.33
2022-08-26T01:41:34.779Z,23.28
2022-08-26T01:44:02.094Z,23.26
2022-08-26T01:46:30.540Z,23.37
2022-08-26T01:48:59.094Z,23.27
2022-08-26T01:51:26.617Z,23.11
2022-08-26T01:53:53.861Z,22.95
2022-08-26T01:56:22.102Z,22.98
2022-08-26T01:58:52.206Z,23.11
2022-08-26T02:01:19.619Z,23.05
2022-08-26T02:03:56.305Z,22.97
2022-08-26T02:06:23.015Z,22.87
2022-08-26T02:08:52.728Z,23.04
2022-08-26T02:11:19.154Z,22.98
2022-08-26T02:13:52.679Z,22.70
2022-08-26T02:16:24.061Z,22.76
2022-08-26T02:18:53.346Z,22.79
2022-08-26T02:21:20.059Z,22.52
2022-08-26T02:23:46.685Z,22.41
2022-08-26T02:26:17.878Z,22.50
2022-08-26T02:29:07.698Z,22.49
2022-08-26T02:31:34.565Z,22.47
2022-08-26T02:34:13.656Z,22.37
2022-08-26T02:36:42.026Z,22.54
2022-08-26T02:39:09.120Z,22.54
2022-08-26T02:41:36.162Z,22.51
2022-08-26T02:44:11.809Z,22.47
2022-08-26T02:46:38.735Z,22.44
2022-08-26T02:49:06.681Z,22.57
2022-08-26T02:51:33.216Z,22.50
2022-08-26T02:53:59.851Z,22.71
2022-08-26T02:56:28.712Z,22.87
2022-08-26T02:58:55.579Z,23.01
2022-08-26T03:01:24.797Z,22.84
2022-08-26T03:03:52.002Z,22.78
2022-08-26T03:06:18.872Z,22.67
2022-08-26T03:08:45.909Z,22.63
2022-08-26T03:11:13.788Z,22.51
2022-08-26T03:13:41.817Z,22.48
2022-08-26T03:16:08.753Z,22.47
2022-08-26T03:18:35.945Z,22.47
2022-08-26T03:21:12.063Z,22.54
2022-08-26T03:23:39.969Z,22.42
2022-08-26T03:26:07.637Z,22.14
2022-08-26T03:28:38.321Z,21.97
2022-08-26T03:31:05.020Z,22.04
2022-08-26T03:33:31.502Z,21.90
2022-08-26T03:35:58.340Z,21.87
2022-08-26T03:38:24.851Z,21.96
2022-08-26T03:40:51.542Z,22.26
2022-08-26T03:43:19.221Z,22.23
2022-08-26T03:45:45.986Z,22.11
2022-08-26T03:48:12.721Z,22.23
2022-08-26T03:50:39.362Z,22.37
2022-08-26T03:53:07.512Z,22.34
2022-08-26T03:55:39.532Z,22.35
2022-08-26T03:58:06.176Z,22.38
2022-08-26T04:00:32.706Z,22.31
2022-08-26T04:03:01.172Z,22.39
2022-08-26T04:05:28.430Z,22.37
2022-08-26T04:07:55.007Z,22.31
2022-08-26T04:10:22.430Z,22.18
2022-08-26T04:12:58.849Z,22.10
2022-08-26T04:15:26.361Z,22.07
2022-08-26T04:17:53.208Z,22.08
2022-08-26T04:20:20.838Z,22.25
2022-08-26T04:22:47.347Z,22.27
2022-08-26T04:25:14.077Z,22.24
2022-08-26T04:27:40.777Z,22.09
2022-08-26T04:30:07.975Z,22.17
2022-08-26T04:32:35.487Z,22.20
2022-08-26T04:35:03.698Z,22.07
2022-08-26T04:37:31.195Z,22.07
2022-08-26T04:39:59.296Z,22.04
2022-08-26T04:42:26.435Z,22.18
2022-08-26T04:44:59.119Z,22.31
2022-08-26T04:47:29.185Z,22.42
2022-08-26T04:49:58.727Z,22.60
2022-08-26T04:52:25.295Z,22.45
2022-08-26T04:54:51.949Z,22.44
2022-08-26T04:57:19.015Z,22.31
2022-08-26T04:59:45.549Z,22.46
2022-08-26T05:02:12.645Z,22.50
2022-08-26T05:04:39.173Z,22.35
2022-08-26T05:07:05.680Z,22.30
2022-08-26T05:09:32.983Z,22.30
2022-08-26T05:11:59.502Z,22.35
2022-08-26T05:14:26.071Z,22.55
2022-08-26T05:16:52.573Z,22.57
2022-08-26T05:19:19.744Z,22.49
2022-08-26T05:21:48.053Z,22.60
2022-08-26T05:24:14.918Z,22.70
2022-08-26T05:26:41.697Z,22.74
2022-08-26T05:29:11.076Z,22.81
2022-08-26T05:31:37.679Z,22.97
2022-08-26T05:34:04.277Z,22.98
2022-08-26T05:36:32.720Z,22.99
2022-08-26T05:39:00.999Z,23.00
2022-08-26T05:41:34.248Z,22.95
2022-08-26T05:44:06.126Z,22.99
2022-08-26T05:46:35.877Z,23.27
2022-08-26T05:49:04.200Z,23.36
2022-08-26T05:51:31.110Z,23.53
2022-08-26T05:53:58.166Z,23.81
2022-08-26T05:56:30.339Z,23.93
2022-08-26T05:58:58.347Z,24.08
2022-08-26T06:01:26.456Z,24.06
2022-08-26T06:03:55.879Z,24.15
2022-08-26T06:06:27.318Z,24.15
2022-08-26T06:08:56.532Z,24.31
2022-08-26T06:11:24.457Z,24.36
2022-08-26T06:13:51.950Z,24.48
2022-08-26T06:16:19.688Z,24.62
2022-08-26T06:18:47.904Z,24.72
2022-08-26T06:21:19.537Z,24.86
2022-08-26T06:23:48.344Z,24.94
2022-08-26T06:26:17.119Z,24.98
2022-08-26T06:28:45.429Z,24.86
2022-08-26T06:31:12.797Z,25.04
2022-08-26T06:33:39.386Z,25.21
2022-08-26T06:36:06.303Z,25.19
2022-08-26T06:38:32.915Z,25.10
2022-08-26T06:41:00.081Z,24.90
2022-08-26T06:43:28.575Z,25.00
2022-08-26T06:46:04.271Z,24.95
2022-08-26T06:48:32.071Z,25.06
2022-08-26T06:51:08.966Z,25.25
2022-08-26T06:53:37.159Z,25.20
2022-08-26T06:56:05.855Z,25.24
2022-08-26T06:58:33.621Z,25.27
2022-08-26T07:01:03.744Z,25.37
2022-08-26T07:03:39.492Z,25.25
2022-08-26T07:06:06.558Z,25.16
2022-08-26T07:08:33.901Z,25.09
2022-08-26T07:11:05.065Z,25.11
2022-08-26T07:13:31.583Z,25.27
2022-08-26T07:15:58.235Z,25.71
2022-08-26T07:18:29.771Z,26.13
2022-08-26T07:20:56.484Z,26.23
2022-08-26T07:23:23.258Z,26.08
2022-08-26T07:25:50.785Z,26.12
2022-08-26T07:28:17.317Z,26.42
2022-08-26T07:30:43.856Z,26.47
2022-08-26T07:33:10.408Z,26.48
2022-08-26T07:35:37.496Z,26.40
2022-08-26T07:38:03.990Z,26.46
2022-08-26T07:40:32.155Z,26.57
2022-08-26T07:43:00.124Z,26.59
2022-08-26T07:45:27.631Z,26.93
2022-08-26T07:47:54.520Z,27.12
2022-08-26T07:50:21.314Z,26.97
2022-08-26T07:53:08.153Z,27.20
2022-08-26T07:55:37.320Z,27.50
2022-08-26T07:58:05.753Z,27.43
2022-08-26T08:00:33.436Z,27.45
2022-08-26T08:03:02.149Z,27.76
2022-08-26T08:05:33.417Z,27.56
2022-08-26T08:08:27.263Z,27.36
2022-08-26T08:10:48.867Z,27.25
2022-08-26T08:13:15.837Z,27.16
2022-08-26T08:15:42.466Z,27.25
2022-08-26T08:18:15.779Z,27.38
2022-08-26T08:20:47.674Z,27.63
2022-08-26T08:23:25.906Z,28.05
2022-08-26T08:26:01.104Z,28.55
2022-08-26T08:28:27.807Z,28.84
2022-08-26T08:30:54.374Z,28.96
2022-08-26T08:33:20.894Z,29.15
2022-08-26T08:35:48.156Z,29.40
2022-08-26T08:38:15.147Z,29.25
2022-08-26T08:40:44.553Z,29.34
2022-08-26T08:43:28.507Z,29.01
2022-08-26T08:46:07.382Z,29.03
2022-08-26T08:48:37.734Z,29.05
2022-08-26T08:51:10.916Z,29.16
2022-08-26T08:53:40.653Z,28.61
2022-08-26T08:56:07.085Z,28.75
2022-08-26T08:58:47.309Z,28.53
2022-08-26T09:01:42.559Z,28.28
2022-08-26T09:04:30.816Z,28.13
2022-08-26T09:07:00.453Z,28.05
2022-08-26T09:09:36.282Z,28.02
2022-08-26T09:12:04.933Z,27.94
2022-08-26T09:14:34.323Z,27.81
2022-08-26T09:17:25.539Z,27.78
2022-08-26T09:19:54.561Z,27.66
2022-08-26T09:22:35.467Z,27.55
2022-08-26T09:25:05.673Z,27.60
2022-08-26T09:27:44.232Z,27.51
2022-08-26T09:30:15.247Z,27.27
2022-08-26T09:32:42.303Z,26.90
2022-08-26T09:35:24.128Z,26.54
2022-08-26T09:40:34.520Z,26.73
2022-08-26T09:43:12.770Z,26.83
2022-08-26T09:45:41.260Z,26.55
2022-08-26T09:48:26.136Z,26.35
2022-08-26T09:51:01.621Z,26.27
2022-08-26T09:53:31.171Z,26.31
2022-08-26T09:56:31.674Z,26.29
2022-08-26T09:58:59.965Z,26.52
2022-08-26T10:01:33.396Z,26.43
2022-08-26T10:04:11.022Z,26.43
2022-08-26T10:06:55.986Z,26.39
2022-08-26T10:09:24.291Z,26.15
2022-08-26T10:11:57.355Z,26.31
2022-08-26T10:14:30.035Z,26.01
2022-08-26T10:17:09.667Z,26.30
2022-08-26T10:19:55.916Z,26.13
2022-08-26T10:22:44.609Z,26.27
2022-08-26T10:25:17.447Z,26.46
2022-08-26T10:27:53.406Z,26.58
2022-08-26T10:30:24.067Z,26.62
2022-08-26T10:32:56.743Z,26.71
2022-08-26T10:35:23.338Z,26.82
2022-08-26T10:38:01.787Z,26.71
2022-08-26T10:40:40.504Z,26.70
2022-08-26T10:43:19.420Z,26.59
2022-08-26T10:45:52.311Z,26.55
2022-08-26T10:48:35.309Z,26.29
2022-08-26T10:51:04.170Z,26.16
2022-08-26T10:53:51.783Z,26.08
2022-08-26T10:56:19.207Z,26.00
2022-08-26T10:59:16.377Z,25.94
2022-08-26T11:01:43.050Z,26.04
2022-08-26T11:04:22.566Z,26.27
2022-08-26T11:06:49.757Z,26.09
2022-08-26T11:09:43.580Z,26.09
2022-08-26T11:12:37.383Z,26.31
2022-08-26T11:15:06.885Z,26.63
2022-08-26T11:17:45.262Z,26.70
2022-08-26T11:20:13.690Z,26.65
2022-08-26T11:22:48.044Z,26.68
2022-08-26T11:25:16.283Z,26.74
2022-08-26T11:27:47.804Z,27.10
2022-08-26T11:30:15.489Z,27.09
2022-08-26T11:32:55.041Z,27.38
2022-08-26T11:35:21.481Z,27.38
2022-08-26T11:37:47.958Z,27.27
2022-08-26T11:40:21.496Z,27.23
2022-08-26T11:42:53.332Z,27.59
2022-08-26T11:45:25.826Z,27.54
2022-08-26T11:47:53.211Z,27.68
2022-08-26T11:50:25.652Z,27.91
2022-08-26T11:52:54.731Z,27.30
2022-08-26T11:55:23.482Z,27.48
2022-08-26T11:57:54.752Z,27.71
2022-08-26T12:00:33.570Z,27.80
2022-08-26T12:03:02.687Z,27.90
2022-08-26T12:05:31.617Z,28.21
2022-08-26T12:08:02.849Z,28.63
2022-08-26T12:10:32.160Z,28.81
2022-08-26T12:13:00.466Z,28.92
2022-08-26T12:15:29.632Z,29.39
2022-08-26T12:17:56.264Z,29.71
2022-08-26T12:20:32.893Z,29.90
2022-08-26T12:22:59.491Z,29.79
2022-08-26T12:25:26.129Z,29.55
2022-08-26T12:27:54.055Z,29.99
2022-08-26T12:30:24.618Z,29.57
2022-08-26T12:33:03.920Z,29.62
2022-08-26T12:35:51.439Z,29.88
2022-08-26T12:38:21.101Z,29.88
2022-08-26T12:40:48.296Z,30.09
2022-08-26T12:43:38.479Z,30.22
2022-08-26T12:46:06.751Z,30.27
2022-08-26T12:48:35.819Z,29.96
2022-08-26T12:51:02.918Z,30.09
2022-08-26T12:53:32.293Z,30.40
2022-08-26T12:56:04.368Z,30.91
2022-08-26T12:58:36.525Z,30.80
2022-08-26T13:01:06.000Z,30.80
2022-08-26T13:03:35.286Z,30.74
2022-08-26T13:06:29.335Z,30.00
2022-08-26T13:09:00.885Z,30.05
2022-08-26T13:11:32.109Z,29.81
2022-08-26T13:14:07.693Z,28.83
2022-08-26T13:16:35.437Z,28.48
2022-08-26T13:19:05.100Z,28.51
2022-08-26T13:21:37.314Z,28.20
2022-08-26T13:24:09.529Z,27.87
2022-08-26T13:26:36.048Z,27.83
2022-08-26T13:29:04.512Z,27.70
2022-08-26T13:31:33.741Z,27.76
2022-08-26T13:34:02.553Z,27.50
2022-08-26T13:36:29.266Z,27.70
2022-08-26T13:38:55.781Z,27.47
2022-08-26T13:41:29.417Z,27.26
2022-08-26T13:43:56.805Z,27.38
2022-08-26T13:46:26.003Z,27.40
2022-08-26T13:48:52.577Z,27.67
2022-08-26T13:51:19.513Z,27.69
2022-08-26T13:53:46.336Z,27.65
2022-08-26T13:56:12.956Z,27.78
2022-08-26T13:58:39.601Z,28.01
2022-08-26T14:01:06.953Z,28.11
2022-08-26T14:03:33.565Z,28.09
2022-08-26T14:06:00.123Z,27.99
2022-08-26T14:08:26.784Z,27.84
2022-08-26T14:10:53.269Z,27.92
2022-08-26T14:13:19.831Z,27.70
2022-08-26T14:15:46.622Z,27.83
2022-08-26T14:18:15.270Z,27.92
2022-08-26T14:20:47.257Z,27.75
2022-08-26T14:23:20.654Z,27.99
2022-08-26T14:25:47.405Z,27.85
2022-08-26T14:28:14.081Z,27.91
2022-08-26T14:30:42.439Z,28.31
2022-08-26T14:33:12.293Z,28.53
2022-08-26T14:35:39.490Z,28.58
2022-08-26T14:38:07.634Z,28.63
2022-08-26T14:40:34.330Z,28.64
2022-08-26T14:43:05.345Z,28.63
2022-08-26T14:45:33.585Z,28.70
2022-08-26T14:48:00.158Z,28.46
2022-08-26T14:50:26.863Z,28.46
2022-08-26T14:52:54.016Z,28.21
2022-08-26T14:55:20.567Z,27.94
2022-08-26T14:57:47.127Z,27.75
2022-08-26T15:00:13.740Z,27.39
2022-08-26T15:02:40.412Z,27.50
2022-08-26T15:05:07.631Z,27.38
2022-08-26T15:07:34.503Z,27.36
2022-08-26T15:10:01.201Z,27.26
2022-08-26T15:12:27.704Z,27.19
2022-08-26T15:14:54.574Z,27.14
2022-08-26T15:17:21.097Z,26.97
2022-08-26T15:19:47.670Z,26.85
2022-08-26T15:22:14.529Z,26.90
2022-08-26T15:24:41.158Z,26.86
2022-08-26T15:27:07.699Z,26.62
2022-08-26T15:29:36.359Z,26.51
2022-08-26T15:32:03.332Z,26.56
2022-08-26T15:34:29.843Z,26.66
2022-08-26T15:36:56.382Z,26.77
2022-08-26T15:39:23.008Z,27.32
2022-08-26T15:41:49.853Z,27.72
2022-08-26T15:44:16.646Z,27.93
2022-08-26T15:46:43.548Z,28.02
2022-08-26T15:49:17.826Z,28.33
2022-08-26T15:51:46.379Z,28.55
2022-08-26T15:54:13.870Z,28.82
2022-08-26T15:56:40.465Z,29.22
2022-08-26T15:59:07.406Z,29.46
2022-08-26T16:01:34.617Z,29.44
2022-08-26T16:04:01.781Z,29.34
2022-08-26T16:06:31.873Z,29.02
2022-08-26T16:08:58.774Z,28.62
2022-08-26T16:11:26.360Z,28.17
2022-08-26T16:13:52.894Z,27.06
2022-08-26T16:16:19.526Z,25.95
2022-08-26T16:18:46.138Z,25.65
2022-08-26T16:21:17.335Z,25.29
2022-08-26T16:23:45.349Z,24.87
2022-08-26T16:26:15.550Z,24.78
2022-08-26T16:28:43.616Z,24.62
2022-08-26T16:31:13.251Z,24.58
2022-08-26T16:33:39.900Z,24.36
2022-08-26T16:36:07.521Z,24.29
2022-08-26T16:38:34.949Z,24.34
2022-08-26T16:41:02.180Z,24.52
2022-08-26T16:43:28.981Z,24.21
2022-08-26T16:45:55.688Z,24.15
2022-08-26T16:48:22.531Z,24.28
2022-08-26T16:50:49.448Z,24.39
2022-08-26T16:53:16.213Z,24.51
2022-08-26T16:55:47.456Z,24.42
2022-08-26T16:58:14.145Z,24.71
2022-08-26T17:00:40.744Z,24.55
2022-08-26T17:03:07.421Z,24.71
2022-08-26T17:05:34.177Z,24.67
2022-08-26T17:08:00.750Z,24.58
2022-08-26T17:10:28.810Z,24.82
2022-08-26T17:12:58.850Z,24.56
2022-08-26T17:15:25.552Z,24.73
2022-08-26T17:17:53.624Z,24.73
2022-08-26T17:20:21.975Z,24.48
2022-08-26T17:22:49.876Z,24.58
2022-08-26T17:25:28.769Z,24.81
2022-08-26T17:30:24.831Z,24.63
2022-08-26T17:32:51.934Z,24.59
2022-08-26T17:35:19.231Z,24.33
2022-08-26T17:37:45.768Z,24.01
2022-08-26T17:40:15.636Z,23.94
2022-08-26T17:42:42.297Z,24.00
2022-08-26T17:45:09.600Z,24.10
2022-08-26T17:47:39.062Z,24.12
2022-08-26T17:50:11.010Z,24.16
2022-08-26T17:52:38.044Z,23.86
2022-08-26T17:55:09.154Z,23.72
2022-08-26T17:57:40.553Z,23.51
2022-08-26T18:00:15.886Z,23.50
2022-08-26T18:02:42.829Z,23.56
2022-08-26T18:05:11.516Z,23.32
2022-08-26T18:07:43.743Z,23.25
2022-08-26T18:10:13.282Z,23.25
2022-08-26T18:12:40.560Z,23.09
2022-08-26T18:15:07.683Z,22.99
2022-08-26T18:17:34.231Z,22.90
2022-08-26T18:20:00.833Z,22.98
2022-08-26T18:22:27.370Z,22.92
2022-08-26T18:24:58.692Z,22.89
2022-08-26T18:27:28.176Z,22.90
2022-08-26T18:29:54.913Z,22.90
2022-08-26T18:32:21.418Z,22.89
2022-08-26T18:34:47.972Z,22.91
2022-08-26T18:37:14.543Z,22.89
2022-08-26T18:39:41.340Z,22.85
2022-08-26T18:42:08.308Z,22.79
2022-08-26T18:44:34.847Z,22.80
2022-08-26T18:47:01.631Z,22.90
2022-08-26T18:49:28.139Z,23.01
2022-08-26T18:51:54.763Z,22.91
2022-08-26T18:56:53.304Z,22.67
2022-08-26T18:59:19.949Z,22.51
2022-08-26T19:01:57.653Z,22.52
2022-08-26T19:04:24.284Z,22.45
2022-08-26T19:06:51.395Z,22.39
2022-08-26T19:09:19.326Z,22.30
2022-08-26T19:11:48.827Z,22.38
2022-08-26T19:14:16.692Z,22.52
2022-08-26T19:16:45.944Z,22.34
2022-08-26T19:19:13.068Z,22.39
2022-08-26T19:21:39.854Z,22.47
2022-08-26T19:24:12.988Z,22.37
2022-08-26T19:26:39.507Z,22.35
2022-08-26T19:29:06.264Z,22.32
2022-08-26T19:31:32.871Z,22.32
2022-08-26T19:33:59.421Z,22.42
2022-08-26T19:36:27.623Z,22.47
2022-08-26T19:38:55.111Z,22.58
2022-08-26T19:41:36.680Z,22.58
2022-08-26T19:44:08.924Z,22.61
2022-08-26T19:46:36.012Z,22.72
2022-08-26T19:49:02.794Z,22.66
2022-08-26T19:51:31.189Z,22.48
2022-08-26T19:53:59.719Z,22.66
2022-08-26T19:56:27.824Z,22.54
2022-08-26T19:58:55.051Z,22.56
2022-08-26T20:01:22.389Z,22.70
2022-08-26T20:03:49.570Z,22.68
2022-08-26T20:06:17.152Z,22.88
2022-08-26T20:08:45.824Z,22.88
2022-08-26T20:11:15.415Z,23.01
2022-08-26T20:13:41.965Z,23.26
2022-08-26T20:16:09.070Z,23.41
2022-08-26T20:18:35.737Z,23.21
2022-08-26T20:21:02.467Z,23.45
2022-08-26T20:23:28.951Z,23.43
2022-08-26T20:25:55.734Z,23.49
2022-08-26T20:28:22.238Z,23.53
2022-08-26T20:30:48.739Z,23.43
2022-08-26T20:33:15.276Z,23.49
2022-08-26T20:35:41.782Z,23.36
2022-08-26T20:38:08.502Z,23.28
2022-08-26T20:40:35.560Z,23.10
2022-08-26T20:43:02.173Z,23.31
2022-08-26T20:45:29.238Z,23.28
2022-08-26T20:47:55.803Z,23.27
2022-08-26T20:50:22.350Z,23.05
2022-08-26T20:52:48.897Z,23.18
2022-08-26T20:55:15.448Z,23.27
2022-08-26T20:57:41.967Z,23.11
2022-08-26T21:00:09.340Z,22.84
2022-08-26T21:02:39.768Z,22.66
2022-08-26T21:05:06.890Z,22.41
2022-08-26T21:07:35.578Z,22.19
2022-08-26T21:10:02.792Z,22.16
2022-08-26T21:12:29.641Z,22.34
2022-08-26T21:14:56.235Z,22.15
2022-08-26T21:17:25.341Z,22.19
2022-08-26T21:19:51.830Z,22.30
2022-08-26T21:22:19.393Z,22.18
2022-08-26T21:24:46.132Z,22.26
2022-08-26T21:27:12.912Z,22.24
2022-08-26T21:29:50.717Z,22.17
2022-08-26T21:32:18.569Z,22.34
2022-08-26T21:34:45.113Z,22.21
2022-08-26T21:37:15.423Z,22.16
2022-08-26T21:39:43.212Z,22.07
2022-08-26T21:42:09.831Z,22.14
2022-08-26T21:44:36.351Z,22.41
2022-08-26T21:47:03.248Z,22.36
2022-08-26T21:49:29.819Z,22.10
2022-08-26T21:51:56.723Z,22.05
2022-08-26T21:54:23.524Z,22.06
2022-08-26T21:56:50.377Z,22.19
2022-08-26T21:59:18.697Z,22.10
2022-08-26T22:01:45.579Z,22.11
2022-08-26T22:04:12.357Z,22.25
2022-08-26T22:06:42.698Z,22.27
2022-08-26T22:09:10.030Z,22.13
2022-08-26T22:11:36.669Z,21.89
2022-08-26T22:14:03.208Z,21.71
2022-08-26T22:16:29.793Z,21.86
2022-08-26T22:18:57.188Z,21.92
2022-08-26T22:21:25.788Z,21.66
2022-08-26T22:23:52.558Z,21.49
2022-08-26T22:26:26.758Z,21.38
2022-08-26T22:28:59.070Z,21.32
2022-08-26T22:31:38.388Z,21.25
2022-08-26T22:34:12.855Z,21.46
2022-08-26T22:36:43.560Z,21.29
2022-08-26T22:39:11.776Z,21.24
2022-08-26T22:41:38.268Z,21.10
2022-08-26T22:44:05.608Z,21.38
2022-08-26T22:46:32.091Z,21.23
2022-08-26T22:48:59.078Z,21.18
2022-08-26T22:51:25.866Z,21.19
2022-08-26T22:53:52.381Z,21.21
2022-08-26T22:56:18.897Z,21.10
2022-08-26T22:58:45.436Z,20.99
2022-08-26T23:01:11.998Z,20.84
2022-08-26T23:03:41.920Z,20.94
2022-08-26T23:06:09.400Z,20.90
2022-08-26T23:08:36.876Z,21.17
2022-08-26T23:11:07.663Z,21.44
2022-08-26T23:13:34.155Z,21.34
2022-08-26T23:16:07.176Z,21.12
2022-08-26T23:18:33.839Z,21.14
2022-08-26T23:21:00.435Z,21.13
2022-08-26T23:23:26.961Z,21.05
2022-08-26T23:25:55.232Z,20.93
2022-08-26T23:28:22.029Z,20.82
2022-08-26T23:30:48.785Z,20.68
2022-08-26T23:33:15.571Z,20.65
2022-08-26T23:35:42.259Z,20.53
2022-08-26T23:38:08.785Z,20.48
2022-08-26T23:40:36.865Z,20.51
2022-08-26T23:43:05.589Z,20.43
2022-08-26T23:45:33.184Z,20.45
2022-08-26T23:48:00.289Z,20.47
2022-08-26T23:50:29.761Z,20.24
2022-08-26T23:52:56.298Z,20.22
2022-08-26T23:55:23.163Z,20.04
2022-08-26T23:57:50.236Z,19.99
